Time;durP1;ratioP1;P1;durP2;ratioP2;P2;SDS_P1;SDS_P2;PMS_P1;PMS_P2;Temp;Humidity;BMP_temperature;BMP_pressure;BME280_temperature;BME280_humidity;BME280_pressure;Samples;Min_cycle;Max_cycle;Signal;HPM_P1;HPM_P2
2022/10/27 00:01:04;;;;;;;13.23;5.00;;;14.40;1.00;;;;;;5047780;28;20481;-83
2022/10/27 00:03:32;;;;;;;7.90;4.20;;;14.40;1.00;;;;;;5048863;28;20478;-83
2022/10/27 00:06:04;;;;;;;8.03;4.20;;;14.40;99.90;;;;;;5046185;28;20914;-82
2022/10/27 00:08:34;;;;;;;8.33;4.87;;;14.40;99.90;;;;;;5050631;28;20455;-84
2022/10/27 00:11:07;;;;;;;8.00;4.17;;;14.30;99.90;;;;;;5052576;28;20462;-83
2022/10/27 00:13:36;;;;;;;7.80;4.43;;;14.40;10.10;;;;;;5057529;28;20932;-83
2022/10/27 00:16:08;;;;;;;7.57;4.80;;;14.30;99.90;;;;;;5045824;28;20513;-84
2022/10/27 00:18:36;;;;;;;8.67;4.77;;;14.30;99.90;;;;;;5050764;28;20884;-84
2022/10/27 00:21:06;;;;;;;7.33;4.47;;;14.20;99.90;;;;;;5046791;28;20557;-83
2022/10/27 00:23:36;;;;;;;8.67;4.40;;;14.30;99.90;;;;;;5046727;28;20990;-83
2022/10/27 00:26:05;;;;;;;9.33;4.40;;;14.30;99.90;;;;;;5043102;28;21177;-82
2022/10/27 00:28:34;;;;;;;5.70;4.70;;;14.20;1.00;;;;;;5049888;28;20808;-82
2022/10/27 00:31:05;;;;;;;7.67;4.47;;;14.00;99.90;;;;;;5050616;28;20454;-83
2022/10/27 00:33:34;;;;;;;6.80;4.70;;;14.00;99.90;;;;;;5044817;28;20491;-83
2022/10/27 00:36:06;;;;;;;8.37;5.10;;;14.10;99.90;;;;;;5047355;28;20462;-84
2022/10/27 00:38:36;;;;;;;6.73;4.30;;;14.10;99.90;;;;;;5053012;28;20449;-84
2022/10/27 00:41:06;;;;;;;7.33;5.20;;;14.10;99.90;;;;;;5051342;28;20569;-83
2022/10/27 00:43:37;;;;;;;6.47;4.60;;;14.10;99.90;;;;;;5039308;28;20494;-83
2022/10/27 00:46:19;;;;;;;5.40;4.90;;;14.10;99.90;;;;;;5043876;28;20466;-82
2022/10/27 00:48:50;;;;;;;8.20;5.03;;;14.00;99.90;;;;;;5045917;28;20465;-83
2022/10/27 00:51:20;;;;;;;5.97;4.70;;;14.00;99.90;;;;;;5041167;28;20467;-83
2022/10/27 00:53:50;;;;;;;5.50;4.13;;;14.00;1.00;;;;;;5043489;28;21044;-84
2022/10/27 00:56:19;;;;;;;5.93;5.20;;;14.10;99.90;;;;;;5046152;28;20474;-83
2022/10/27 00:58:48;;;;;;;6.40;4.73;;;14.10;1.00;;;;;;5048448;28;20486;-84
2022/10/27 01:01:16;;;;;;;8.40;4.57;;;14.00;9.10;;;;;;5045840;28;20540;-83
2022/10/27 01:03:45;;;;;;;4.70;4.23;;;13.90;9.70;;;;;;5044937;28;20547;-83
2022/10/27 01:06:14;;;;;;;6.83;4.87;;;13.80;99.90;;;;;;5050101;28;20466;-83
2022/10/27 01:08:43;;;;;;;5.10;4.33;;;13.80;99.90;;;;;;5043105;28;20470;-84
2022/10/27 01:11:13;;;;;;;7.63;5.27;;;13.80;95.60;;;;;;5044833;28;20953;-83
2022/10/27 01:13:41;;;;;;;5.47;4.30;;;13.80;99.90;;;;;;5042128;28;20449;-83
2022/10/27 01:16:23;;;;;;;6.60;4.80;;;13.70;99.90;;;;;;5044297;28;20451;-83
2022/10/27 01:19:03;;;;;;;7.20;4.60;;;13.70;99.90;;;;;;5040665;28;21176;-83
2022/10/27 01:21:53;;;;;;;6.33;3.70;;;13.80;99.90;;;;;;5043138;28;20483;-83
2022/10/27 01:24:46;;;;;;;5.10;4.53;;;13.70;99.90;;;;;;5057706;28;20464;-83
2022/10/27 01:27:44;;;;;;;6.47;4.23;;;13.70;99.90;;;;;;5042496;28;20465;-84
2022/10/27 01:30:15;;;;;;;6.23;3.73;;;13.70;6.00;;;;;;5039986;28;20454;-83
2022/10/27 01:32:56;;;;;;;6.27;4.60;;;13.70;1.00;;;;;;5040292;28;21009;-84
2022/10/27 01:35:32;;;;;;;6.03;3.73;;;13.80;1.00;;;;;;5041617;28;20969;-84
2022/10/27 01:38:08;;;;;;;5.93;4.47;;;13.70;1.00;;;;;;5045285;28;20544;-84
2022/10/27 01:40:40;;;;;;;4.87;3.70;;;13.60;1.00;;;;;;5047808;28;20466;-84
2022/10/27 01:43:13;;;;;;;6.57;4.27;;;13.50;99.90;;;;;;5046598;28;20841;-83
2022/10/27 01:45:42;;;;;;;4.43;4.13;;;13.50;1.00;;;;;;5042652;28;20473;-82
2022/10/27 01:48:13;;;;;;;5.30;4.80;;;13.60;31.40;;;;;;5045546;28;20449;-83
2022/10/27 01:50:43;;;;;;;6.17;4.53;;;13.50;99.90;;;;;;5049788;28;20437;-83
2022/10/27 01:53:30;;;;;;;5.97;3.60;;;13.70;99.90;;;;;;5041366;28;20502;-82
2022/10/27 01:56:12;;;;;;;12.90;5.00;;;13.70;84.70;;;;;;5042818;28;20853;-84
2022/10/27 01:59:05;;;;;;;5.60;4.53;;;13.60;99.90;;;;;;5061218;28;21301;-83
2022/10/27 02:01:45;;;;;;;5.00;4.40;;;13.40;99.90;;;;;;5034765;28;20885;-83
2022/10/27 02:04:25;;;;;;;4.00;3.70;;;13.50;99.90;;;;;;5044701;28;20829;-83
2022/10/27 02:06:59;;;;;;;4.97;3.90;;;13.70;99.90;;;;;;5040524;28;20561;-83
2022/10/27 02:09:36;;;;;;;7.70;4.97;;;13.60;72.50;;;;;;5042595;28;20451;-84
2022/10/27 02:12:09;;;;;;;11.03;5.27;;;13.50;99.90;;;;;;5047027;28;20474;-83
2022/10/27 02:14:37;;;;;;;4.67;4.30;;;13.60;99.90;;;;;;5046433;28;20988;-83
2022/10/27 02:17:09;;;;;;;7.97;4.60;;;13.70;99.90;;;;;;5046246;28;20981;-83
2022/10/27 02:19:42;;;;;;;5.53;4.30;;;13.60;99.90;;;;;;5048939;28;20445;-83
2022/10/27 02:22:12;;;;;;;4.43;4.10;;;13.50;99.90;;;;;;5039204;28;20570;-84
2022/10/27 02:24:40;;;;;;;4.60;3.80;;;13.50;40.90;;;;;;5044407;28;20890;-84
2022/10/27 02:27:13;;;;;;;4.47;4.07;;;13.40;1.00;;;;;;5056529;28;20509;-83
2022/10/27 02:29:44;;;;;;;4.67;4.30;;;13.30;99.90;;;;;;5046931;28;20466;-83
2022/10/27 02:32:16;;;;;;;7.70;5.07;;;13.40;99.90;;;;;;5043557;28;20476;-84
2022/10/27 02:34:47;;;;;;;7.77;3.90;;;13.40;99.90;;;;;;5050923;28;20476;-83
2022/10/27 02:37:20;;;;;;;4.40;4.00;;;13.20;99.90;;;;;;5046126;28;20459;-83
2022/10/27 02:39:48;;;;;;;8.57;4.10;;;13.20;99.90;;;;;;5060643;28;21270;-84
2022/10/27 02:42:16;;;;;;;7.43;4.97;;;13.30;99.90;;;;;;5041257;28;20499;-84
2022/10/27 02:44:44;;;;;;;5.13;4.57;;;13.30;99.90;;;;;;5048235;28;20473;-84
2022/10/27 02:47:13;;;;;;;6.00;4.80;;;13.30;99.90;;;;;;5045837;28;20574;-83
2022/10/27 02:49:41;;;;;;;7.47;4.40;;;13.30;99.90;;;;;;5041996;28;21073;-83
2022/10/27 02:52:10;;;;;;;5.93;4.57;;;13.30;99.90;;;;;;5036147;28;20516;-84
2022/10/27 02:54:39;;;;;;;6.27;4.60;;;13.30;99.90;;;;;;5040742;28;20461;-84
2022/10/27 02:57:07;;;;;;;10.37;4.50;;;13.30;1.00;;;;;;5044408;28;20976;-83
2022/10/27 02:59:35;;;;;;;10.97;4.00;;;13.40;99.90;;;;;;5031449;28;20966;-83
2022/10/27 03:02:03;;;;;;;6.40;4.17;;;13.30;1.00;;;;;;5038302;28;20490;-83
2022/10/27 03:04:32;;;;;;;4.50;4.10;;;13.20;99.90;;;;;;5044393;28;20464;-84
2022/10/27 03:07:00;;;;;;;7.57;4.30;;;13.10;99.90;;;;;;5047792;28;20453;-83
2022/10/27 03:09:30;;;;;;;7.00;5.20;;;13.00;99.90;;;;;;5044617;28;20462;-83
2022/10/27 03:11:58;;;;;;;7.10;4.30;;;13.00;99.90;;;;;;5050365;28;20488;-84
2022/10/27 03:14:26;;;;;;;6.53;3.83;;;13.10;99.90;;;;;;5048142;28;21083;-83
2022/10/27 03:16:54;;;;;;;7.70;4.27;;;13.00;1.00;;;;;;5050035;28;20476;-83
2022/10/27 03:19:22;;;;;;;5.83;4.53;;;13.10;1.00;;;;;;5048941;28;20475;-84
2022/10/27 03:21:51;;;;;;;7.03;5.43;;;13.20;99.90;;;;;;5039300;28;20476;-83
2022/10/27 03:24:19;;;;;;;8.97;4.97;;;13.10;99.90;;;;;;5046345;28;20456;-84
2022/10/27 03:26:48;;;;;;;5.70;4.07;;;13.10;99.90;;;;;;5047669;28;20457;-83
2022/10/27 03:29:16;;;;;;;4.77;4.27;;;13.10;30.30;;;;;;5050011;28;20821;-83
2022/10/27 03:31:45;;;;;;;4.90;4.17;;;13.00;11.90;;;;;;5044767;28;20508;-83
2022/10/27 03:34:13;;;;;;;5.00;4.17;;;12.90;99.90;;;;;;5047267;28;20456;-82
2022/10/27 03:36:52;;;;;;;4.93;3.90;;;13.00;99.90;;;;;;5050960;28;20461;-82
2022/10/27 03:39:20;;;;;;;8.33;5.20;;;12.90;13.30;;;;;;5047272;28;20454;-84
2022/10/27 03:41:49;;;;;;;7.27;4.90;;;12.90;99.90;;;;;;5048599;28;20820;-82
2022/10/27 03:44:18;;;;;;;5.57;4.13;;;12.90;99.90;;;;;;5043595;28;20500;-83
2022/10/27 03:46:46;;;;;;;5.30;4.80;;;12.90;99.90;;;;;;5048549;28;21228;-82
2022/10/27 03:49:14;;;;;;;5.37;4.87;;;12.90;1.00;;;;;;5045145;28;20467;-83
2022/10/27 03:51:42;;;;;;;5.97;4.07;;;12.90;22.20;;;;;;5053040;28;20494;-84
2022/10/27 03:54:11;;;;;;;4.70;4.20;;;12.80;60.00;;;;;;5050548;28;20823;-83
2022/10/27 03:56:39;;;;;;;5.63;4.27;;;12.80;99.90;;;;;;5052352;28;21063;-83
2022/10/27 03:59:09;;;;;;;4.83;4.17;;;12.90;1.00;;;;;;5044198;28;20476;-82
2022/10/27 04:01:37;;;;;;;5.50;4.13;;;12.90;1.00;;;;;;5042253;28;20465;-82
2022/10/27 04:04:06;;;;;;;6.07;4.17;;;12.80;1.00;;;;;;5042947;28;20478;-83
2022/10/27 04:06:34;;;;;;;6.17;4.10;;;12.70;99.90;;;;;;5049211;28;20459;-83
2022/10/27 04:09:03;;;;;;;4.50;4.10;;;12.70;1.00;;;;;;5052480;28;20474;-83
2022/10/27 04:11:36;;;;;;;8.43;3.57;;;12.70;1.00;;;;;;5046977;28;20503;-82
2022/10/27 04:14:04;;;;;;;9.43;4.07;;;12.70;1.00;;;;;;5040603;28;20456;-83
2022/10/27 04:16:34;;;;;;;7.00;4.63;;;12.80;99.90;;;;;;5050964;28;20453;-82
2022/10/27 04:19:02;;;;;;;4.40;4.00;;;12.60;1.00;;;;;;5050342;28;20776;-82
2022/10/27 04:21:30;;;;;;;6.03;4.33;;;12.60;99.90;;;;;;5047132;28;20455;-85
2022/10/27 04:23:58;;;;;;;5.53;3.93;;;12.60;1.00;;;;;;5042566;28;20472;-82
2022/10/27 04:26:26;;;;;;;5.40;4.00;;;12.60;1.00;;;;;;5047736;28;20461;-83
2022/10/27 04:28:54;;;;;;;8.10;4.13;;;12.40;99.90;;;;;;5043956;28;20450;-82
2022/10/27 04:31:23;;;;;;;5.93;5.33;;;12.50;99.90;;;;;;5040425;28;21167;-82
2022/10/27 04:33:52;;;;;;;5.07;3.83;;;12.40;99.90;;;;;;5041109;28;20449;-83
2022/10/27 04:36:20;;;;;;;5.33;3.90;;;12.50;1.00;;;;;;5048595;28;20471;-83
2022/10/27 04:38:49;;;;;;;3.80;2.80;;;12.40;1.00;;;;;;5045782;28;20539;-82
2022/10/27 04:41:17;;;;;;;5.53;3.90;;;12.30;99.90;;;;;;5041948;28;20460;-82
2022/10/27 04:43:50;;;;;;;6.43;3.87;;;12.30;42.50;;;;;;5045300;28;20468;-81
2022/10/27 04:46:18;;;;;;;5.83;4.83;;;12.40;99.90;;;;;;5059352;28;20468;-83
2022/10/27 04:48:46;;;;;;;9.87;4.57;;;12.40;1.00;;;;;;5050161;28;20460;-83
2022/10/27 04:51:16;;;;;;;7.13;4.60;;;12.40;1.00;;;;;;5046368;28;20505;-83
2022/10/27 04:53:50;;;;;;;6.10;4.63;;;12.40;99.90;;;;;;5050742;28;20441;-82
2022/10/27 04:56:18;;;;;;;5.23;4.47;;;12.40;99.90;;;;;;5050857;28;20470;-83
2022/10/27 04:58:46;;;;;;;4.50;4.10;;;12.50;99.90;;;;;;5047670;28;20463;-83
2022/10/27 05:01:15;;;;;;;7.10;5.53;;;12.50;1.00;;;;;;5043618;28;20465;-84
2022/10/27 05:03:43;;;;;;;4.87;4.47;;;12.60;99.90;;;;;;5044669;28;20486;-84
2022/10/27 05:06:11;;;;;;;8.80;5.00;;;12.50;1.00;;;;;;5058264;28;21080;-83
2022/10/27 05:08:41;;;;;;;5.47;4.87;;;12.50;99.90;;;;;;5047452;28;20480;-83
2022/10/27 05:11:09;;;;;;;6.30;5.37;;;12.40;99.90;;;;;;5051922;28;20453;-83
2022/10/27 05:13:43;;;;;;;6.87;5.23;;;12.40;1.00;;;;;;5047950;28;20480;-83
2022/10/27 05:16:11;;;;;;;7.00;4.97;;;12.40;1.00;;;;;;5047562;28;20579;-83
2022/10/27 05:18:39;;;;;;;5.97;4.93;;;12.30;1.00;;;;;;5044668;28;20469;-84
2022/10/27 05:21:07;;;;;;;6.43;4.83;;;12.30;1.00;;;;;;5041623;28;20521;-84
2022/10/27 05:23:35;;;;;;;6.13;4.70;;;12.30;1.00;;;;;;5048449;28;20478;-84
2022/10/27 05:26:05;;;;;;;7.67;4.57;;;12.40;1.00;;;;;;5050268;28;20459;-84
2022/10/27 05:28:33;;;;;;;5.60;4.93;;;12.40;1.00;;;;;;5052693;28;20467;-82
2022/10/27 05:31:02;;;;;;;7.10;5.10;;;12.30;1.00;;;;;;5045687;28;20989;-83
2022/10/27 05:33:30;;;;;;;4.80;4.40;;;12.30;1.00;;;;;;5052434;28;20481;-83
2022/10/27 05:35:58;;;;;;;5.40;4.83;;;12.30;1.00;;;;;;5051375;28;20552;-84
2022/10/27 05:38:26;;;;;;;5.87;4.63;;;12.20;99.90;;;;;;5054814;28;20451;-83
2022/10/27 05:40:55;;;;;;;6.30;4.53;;;12.30;1.00;;;;;;5045847;28;20455;-84
2022/10/27 05:43:25;;;;;;;7.20;5.17;;;12.30;1.00;;;;;;5050724;28;20849;-81
2022/10/27 05:45:53;;;;;;;6.60;5.50;;;12.20;1.00;;;;;;5042622;28;20456;-84
2022/10/27 05:48:21;;;;;;;8.00;5.00;;;12.20;99.90;;;;;;5045510;28;20457;-84
2022/10/27 05:50:52;;;;;;;15.17;5.73;;;12.30;99.90;;;;;;5068207;28;20455;-84
2022/10/27 05:53:21;;;;;;;7.40;5.50;;;12.20;99.90;;;;;;5051052;28;20477;-84
2022/10/27 05:55:52;;;;;;;9.83;6.03;;;12.20;99.90;;;;;;5044682;28;20447;-84
2022/10/27 05:58:20;;;;;;;5.37;4.90;;;12.30;1.00;;;;;;5050675;28;20519;-85
2022/10/27 06:00:49;;;;;;;10.40;5.40;;;12.40;99.90;;;;;;5046815;28;20555;-85
2022/10/27 06:03:20;;;;;;;6.50;5.27;;;12.30;99.90;;;;;;5049269;28;20903;-85
2022/10/27 06:05:48;;;;;;;10.60;5.93;;;12.40;1.00;;;;;;5049555;28;20491;-84
2022/10/27 06:08:17;;;;;;;9.07;5.70;;;12.60;1.00;;;;;;5039930;28;20562;-85
2022/10/27 06:10:46;;;;;;;6.53;6.00;;;12.70;1.00;;;;;;5058428;28;20517;-84
2022/10/27 06:13:14;;;;;;;8.67;6.57;;;12.90;1.00;;;;;;5040949;28;20572;-84
2022/10/27 06:15:43;;;;;;;7.87;5.70;;;12.90;1.00;;;;;;5048995;28;20447;-84
2022/10/27 06:18:13;;;;;;;6.37;5.73;;;12.90;1.00;;;;;;5050009;28;20838;-83
2022/10/27 06:20:41;;;;;;;6.30;5.80;;;12.90;1.00;;;;;;5045551;28;20495;-84
2022/10/27 06:23:10;;;;;;;7.33;6.50;;;12.80;1.00;;;;;;5045527;28;20528;-84
2022/10/27 06:25:38;;;;;;;7.57;6.03;;;12.80;99.90;;;;;;5048236;28;20970;-85
2022/10/27 06:28:06;;;;;;;6.97;5.97;;;12.70;99.90;;;;;;5049534;28;20461;-84
2022/10/27 06:30:34;;;;;;;7.87;6.30;;;12.70;99.90;;;;;;5046207;28;20541;-84
2022/10/27 06:33:02;;;;;;;7.87;6.90;;;12.80;99.90;;;;;;5045629;28;20526;-85
2022/10/27 06:35:32;;;;;;;6.70;5.30;;;12.90;99.90;;;;;;5049373;28;20447;-86
2022/10/27 06:38:00;;;;;;;6.83;6.23;;;12.70;99.90;;;;;;5052767;28;21194;-87
2022/10/27 06:40:28;;;;;;;8.57;7.17;;;12.70;99.90;;;;;;5047158;28;20510;-84
2022/10/27 06:42:56;;;;;;;9.00;6.17;;;12.70;99.90;;;;;;5044206;28;20557;-84
2022/10/27 06:45:40;;;;;;;10.67;6.83;;;12.70;99.90;;;;;;5046152;28;20538;-85
2022/10/27 06:48:10;;;;;;;12.20;6.57;;;12.70;99.90;;;;;;5046643;28;20509;-84
2022/10/27 06:50:40;;;;;;;10.77;7.87;;;12.60;99.90;;;;;;5045253;28;21179;-85
2022/10/27 06:53:08;;;;;;;9.50;6.60;;;12.40;1.00;;;;;;5044253;28;20867;-84
2022/10/27 06:55:36;;;;;;;9.27;8.00;;;12.30;1.00;;;;;;5041770;28;20492;-83
2022/10/27 06:58:04;;;;;;;12.57;7.73;;;12.20;1.00;;;;;;5041634;28;20461;-84
2022/10/27 07:00:33;;;;;;;9.77;8.53;;;12.30;1.00;;;;;;5058542;28;20458;-83
2022/10/27 07:03:07;;;;;;;9.80;8.23;;;12.50;22.10;;;;;;5042613;28;20487;-83
2022/10/27 07:05:42;;;;;;;13.17;8.50;;;12.50;1.00;;;;;;5040345;28;21090;-84
2022/10/27 07:08:10;;;;;;;11.17;8.87;;;12.50;1.00;;;;;;5040710;28;20912;-84
2022/10/27 07:10:38;;;;;;;9.37;8.50;;;12.70;27.70;;;;;;5044090;28;21228;-84
2022/10/27 07:13:07;;;;;;;7.97;7.23;;;12.70;22.00;;;;;;5040805;28;20569;-84
2022/10/27 07:15:37;;;;;;;11.37;9.23;;;13.00;1.00;;;;;;5042851;28;20466;-84
2022/10/27 07:18:07;;;;;;;10.60;8.90;;;13.30;1.00;;;;;;5038646;28;20447;-84
2022/10/27 07:20:37;;;;;;;13.20;9.03;;;13.50;1.00;;;;;;5057977;28;20463;-84
2022/10/27 07:23:08;;;;;;;11.43;9.90;;;13.80;1.00;;;;;;5040915;28;20535;-84
2022/10/27 07:25:36;;;;;;;10.90;9.90;;;14.30;1.00;;;;;;5041720;28;20536;-84
2022/10/27 07:28:05;;;;;;;9.27;8.30;;;14.40;1.00;;;;;;5043936;28;20964;-83
2022/10/27 07:30:36;;;;;;;10.03;9.23;;;14.60;1.00;;;;;;5045330;28;20442;-83
2022/10/27 07:33:04;;;;;;;10.50;9.50;;;15.00;1.00;;;;;;5045871;28;20532;-84
2022/10/27 07:35:33;;;;;;;17.40;9.63;;;15.10;1.00;;;;;;5049350;28;20513;-85
2022/10/27 07:38:01;;;;;;;10.50;9.70;;;15.50;1.00;;;;;;5039170;28;20822;-84
2022/10/27 07:40:31;;;;;;;10.60;9.70;;;15.60;99.90;;;;;;5047288;28;20508;-85
2022/10/27 07:43:01;;;;;;;11.00;10.23;;;16.00;99.90;;;;;;5048329;28;20475;-85
2022/10/27 07:45:36;;;;;;;10.47;9.77;;;16.10;1.00;;;;;;5042130;28;20475;-86
2022/10/27 07:48:06;;;;;;;12.20;11.10;;;16.30;1.00;;;;;;5040242;28;20881;-84
2022/10/27 07:50:34;;;;;;;11.30;10.33;;;16.50;99.90;;;;;;5045996;28;20536;-85
2022/10/27 07:53:04;;;;;;;12.87;11.77;;;16.90;99.90;;;;;;5043696;28;20484;-83
2022/10/27 07:55:35;;;;;;;13.47;12.27;;;17.10;99.90;;;;;;5052089;28;20461;-85
2022/10/27 07:58:06;;;;;;;12.40;11.50;;;17.30;99.90;;;;;;5051151;28;20915;-85
2022/10/27 08:00:36;;;;;;;14.20;12.90;;;17.50;99.90;;;;;;5051001;28;20553;-84
2022/10/27 08:03:06;;;;;;;13.57;11.20;;;17.80;99.90;;;;;;5048577;28;20493;-84
2022/10/27 08:05:36;;;;;;;12.37;11.27;;;18.40;99.90;;;;;;5046106;28;20542;-84
2022/10/27 08:08:06;;;;;;;12.40;10.30;;;18.90;1.00;;;;;;5047562;28;20459;-84
2022/10/27 08:10:38;;;;;;;15.10;9.40;;;19.20;99.90;;;;;;5045655;28;20452;-84
2022/10/27 08:13:07;;;;;;;12.87;11.00;;;19.60;99.90;;;;;;5044760;28;20479;-85
2022/10/27 08:15:35;;;;;;;11.70;10.70;;;19.80;54.00;;;;;;5050759;28;20489;-84
2022/10/27 08:18:04;;;;;;;11.57;10.40;;;20.50;1.00;;;;;;5045679;28;20958;-85
2022/10/27 08:20:35;;;;;;;9.93;8.97;;;21.20;1.00;;;;;;5046939;28;20567;-84
2022/10/27 08:23:05;;;;;;;11.10;9.13;;;21.60;1.00;;;;;;5039946;28;20529;-86
2022/10/27 08:25:34;;;;;;;10.80;8.90;;;22.10;1.00;;;;;;5042752;28;20456;-85
2022/10/27 08:28:03;;;;;;;13.57;9.37;;;22.20;1.00;;;;;;5044993;28;20510;-85
2022/10/27 08:30:33;;;;;;;8.53;7.73;;;22.60;1.00;;;;;;5046329;28;20514;-84
2022/10/27 08:33:12;;;;;;;7.87;7.10;;;22.90;99.90;;;;;;5049307;28;20850;-85
2022/10/27 08:35:41;;;;;;;7.90;7.30;;;22.50;99.90;;;;;;5048862;28;20448;-86
2022/10/27 08:38:12;;;;;;;7.83;7.13;;;22.50;99.90;;;;;;5049871;28;20512;-86
2022/10/27 08:40:59;;;;;;;8.37;7.67;;;21.80;99.90;;;;;;5048671;28;20451;-83
2022/10/27 08:43:47;;;;;;;7.90;7.10;;;21.80;99.90;;;;;;5051653;28;21079;-83
2022/10/27 08:46:21;;;;;;;9.53;7.40;;;21.00;1.00;;;;;;5048353;28;20530;-85
2022/10/27 08:48:53;;;;;;;7.53;6.87;;;20.60;1.00;;;;;;5056176;28;20734;-81
2022/10/27 08:51:23;;;;;;;8.47;7.77;;;20.40;1.00;;;;;;5059120;28;20518;-82
2022/10/27 08:53:53;;;;;;;8.47;7.67;;;20.10;1.00;;;;;;5046621;28;20456;-82
2022/10/27 08:56:30;;;;;;;9.33;8.43;;;19.90;99.90;;;;;;5053456;28;20482;-80
2022/10/27 08:58:58;;;;;;;8.80;8.00;;;20.00;99.90;;;;;;5046493;28;20486;-82
2022/10/27 09:01:33;;;;;;;12.87;8.73;;;20.10;99.90;;;;;;5047396;28;20203;-80
2022/10/27 09:04:33;;;;;;;9.57;8.50;;;20.70;66.10;;;;;;5036213;28;20521;-79
2022/10/27 09:07:13;;;;;;;8.40;7.80;;;21.90;1.00;;;;;;5026201;28;20480;-79
2022/10/27 09:09:48;;;;;;;13.50;6.73;;;23.20;1.00;;;;;;5039107;28;20498;-79
2022/10/27 09:12:29;;;;;;;6.80;6.33;;;23.70;99.90;;;;;;5042256;28;20458;-79
2022/10/27 09:15:29;;;;;;;6.53;5.87;;;24.40;99.90;;;;;;5043821;28;20456;-79
2022/10/27 09:18:03;;;;;;;6.80;5.50;;;24.30;99.90;;;;;;5041012;28;20469;-79
2022/10/27 09:20:37;;;;;;;5.67;4.80;;;23.70;99.90;;;;;;5044613;28;20455;-80
2022/10/27 09:23:10;;;;;;;7.00;4.30;;;23.40;99.90;;;;;;5035491;28;20526;-79
2022/10/27 09:25:41;;;;;;;5.90;4.30;;;23.50;99.90;;;;;;5045100;28;21270;-79
2022/10/27 09:28:18;;;;;;;6.70;4.20;;;23.60;99.90;;;;;;5037093;28;21012;-79
2022/10/27 09:30:50;;;;;;;6.40;4.87;;;23.80;99.90;;;;;;5041130;28;20889;-78
2022/10/27 09:33:21;;;;;;;8.67;3.83;;;24.00;99.90;;;;;;5038681;28;21273;-78
2022/10/27 09:35:51;;;;;;;3.50;3.10;;;23.80;99.90;;;;;;5038343;28;20509;-79
2022/10/27 09:38:23;;;;;;;4.90;3.23;;;24.10;99.90;;;;;;5043709;28;20460;-79
2022/10/27 09:40:52;;;;;;;7.70;3.70;;;24.20;99.90;;;;;;5037375;28;20825;-79
2022/10/27 09:43:23;;;;;;;4.80;3.10;;;24.20;99.90;;;;;;5037508;28;20467;-79
2022/10/27 09:45:54;;;;;;;4.77;2.70;;;24.20;99.90;;;;;;5034985;28;20569;-79
2022/10/27 09:48:25;;;;;;;6.47;3.27;;;24.20;99.90;;;;;;5035057;28;20563;-79
2022/10/27 09:50:58;;;;;;;3.30;3.00;;;24.20;99.90;;;;;;5042757;28;20456;-79
2022/10/27 09:53:43;;;;;;;3.80;3.40;;;24.80;99.90;;;;;;5040150;28;20468;-79
2022/10/27 09:56:15;;;;;;;3.83;3.00;;;24.90;99.90;;;;;;5040768;28;20487;-78
2022/10/27 09:58:56;;;;;;;12.77;3.73;;;25.30;99.90;;;;;;5037672;28;20987;-81
2022/10/27 10:01:44;;;;;;;7.13;3.00;;;25.60;99.90;;;;;;5034422;28;20462;-81
2022/10/27 10:04:19;;;;;;;4.90;3.10;;;26.20;99.90;;;;;;5038053;28;20452;-82
2022/10/27 10:06:54;;;;;;;3.70;2.70;;;26.30;99.90;;;;;;5033106;28;20483;-81
2022/10/27 10:09:28;;;;;;;8.10;3.40;;;26.30;99.90;;;;;;5042413;28;21160;-81
2022/10/27 10:12:18;;;;;;;4.40;2.67;;;26.60;99.90;;;;;;5042411;28;20475;-80
2022/10/27 10:15:12;;;;;;;4.50;2.60;;;27.40;99.90;;;;;;5040138;28;20456;-81
2022/10/27 10:17:42;;;;;;;4.57;3.10;;;28.00;99.90;;;;;;5045818;28;20554;-82
2022/10/27 10:20:36;;;;;;;3.53;2.60;;;28.50;99.90;;;;;;5043645;28;20460;-81
2022/10/27 10:23:18;;;;;;;3.50;3.03;;;28.70;99.90;;;;;;5039211;28;20478;-80
2022/10/27 10:25:48;;;;;;;3.57;2.70;;;30.70;99.90;;;;;;5036444;28;20475;-81
2022/10/27 10:28:24;;;;;;;2.93;2.53;;;33.00;99.90;;;;;;5039795;28;20451;-81
2022/10/27 10:30:56;;;;;;;4.30;2.70;;;35.20;99.90;;;;;;5039916;28;20543;-81
2022/10/27 10:33:28;;;;;;;4.77;2.60;;;36.40;99.90;;;;;;5045181;28;20499;-81
2022/10/27 10:35:57;;;;;;;3.07;2.30;;;36.30;99.90;;;;;;5045467;28;20535;-81
2022/10/27 10:38:30;;;;;;;3.40;2.73;;;36.50;99.90;;;;;;5044292;28;20463;-81
2022/10/27 10:41:12;;;;;;;7.40;2.60;;;34.10;99.90;;;;;;5043179;28;20456;-80
2022/10/27 10:43:40;;;;;;;5.43;2.40;;;31.60;99.90;;;;;;5032717;28;20504;-81
2022/10/27 10:46:19;;;;;;;3.93;2.17;;;32.60;99.90;;;;;;5037499;28;20552;-81
2022/10/27 10:48:51;;;;;;;5.10;2.37;;;34.50;99.90;;;;;;5043820;28;20565;-81
2022/10/27 10:51:25;;;;;;;3.03;2.20;;;34.70;99.90;;;;;;5046742;28;20822;-81
2022/10/27 10:53:59;;;;;;;4.63;2.67;;;35.20;99.90;;;;;;5040244;28;20461;-81
2022/10/27 10:56:29;;;;;;;3.70;2.63;;;37.60;99.90;;;;;;5057786;28;20542;-81
2022/10/27 10:59:07;;;;;;;5.87;2.70;;;38.20;99.90;;;;;;5044128;28;20456;-80
2022/10/27 11:01:47;;;;;;;2.53;1.87;;;38.80;99.90;;;;;;5045480;28;20451;-81
2022/10/27 11:04:20;;;;;;;4.67;2.10;;;39.00;99.90;;;;;;5034408;28;20476;-81
2022/10/27 11:07:04;;;;;;;3.90;2.50;;;38.40;99.90;;;;;;5042225;28;20480;-81
2022/10/27 11:09:49;;;;;;;3.47;2.17;;;37.20;99.90;;;;;;5042885;28;20451;-81
2022/10/27 11:12:26;;;;;;;2.80;1.97;;;34.00;99.90;;;;;;5042663;28;20479;-82
2022/10/27 11:14:55;;;;;;;4.63;2.87;;;30.40;99.90;;;;;;5040607;28;20464;-81
2022/10/27 11:17:27;;;;;;;3.70;2.40;;;28.60;99.90;;;;;;5044100;28;20467;-81
2022/10/27 11:19:56;;;;;;;7.83;2.80;;;28.00;99.90;;;;;;5040167;28;20825;-80
2022/10/27 11:22:26;;;;;;;7.73;2.87;;;27.50;99.90;;;;;;5039326;28;20583;-81
2022/10/27 11:24:59;;;;;;;3.53;2.10;;;27.30;99.90;;;;;;5043815;28;20509;-81
2022/10/27 11:27:30;;;;;;;6.03;2.17;;;26.40;99.90;;;;;;5039925;28;20567;-80
2022/10/27 11:30:10;;;;;;;3.70;2.10;;;26.10;99.90;;;;;;5042661;28;20463;-80
2022/10/27 11:32:46;;;;;;;3.33;2.20;;;25.40;99.90;;;;;;5048016;28;20515;-80
2022/10/27 11:35:20;;;;;;;2.13;1.90;;;25.30;99.90;;;;;;5045907;28;20503;-81
2022/10/27 11:37:53;;;;;;;3.03;2.67;;;25.60;99.90;;;;;;5043889;28;20466;-80
2022/10/27 11:40:33;;;;;;;5.73;2.63;;;25.80;99.90;;;;;;5042521;28;20455;-80
2022/10/27 11:43:06;;;;;;;4.30;2.67;;;25.30;99.90;;;;;;5049369;28;20540;-80
2022/10/27 11:45:41;;;;;;;5.67;2.27;;;25.40;99.90;;;;;;5038997;28;20473;-81
2022/10/27 11:48:16;;;;;;;5.07;2.13;;;25.70;99.90;;;;;;5040457;28;20521;-80
2022/10/27 11:50:48;;;;;;;3.33;2.20;;;25.30;99.90;;;;;;5043574;28;20494;-80
2022/10/27 11:53:18;;;;;;;4.17;1.90;;;25.30;99.90;;;;;;5045646;28;20706;-80
2022/10/27 11:56:04;;;;;;;6.17;1.77;;;25.50;99.90;;;;;;5045114;28;20953;-80
2022/10/27 11:58:47;;;;;;;3.03;2.67;;;25.40;99.90;;;;;;5041307;28;20846;-80
2022/10/27 12:01:29;;;;;;;6.33;2.40;;;25.70;99.90;;;;;;5044204;28;20452;-80
2022/10/27 12:04:09;;;;;;;5.03;2.13;;;25.70;99.90;;;;;;5041637;28;20477;-81
2022/10/27 12:06:46;;;;;;;2.50;2.30;;;25.50;99.90;;;;;;5039904;28;20580;-81
2022/10/27 12:09:26;;;;;;;4.10;1.97;;;25.50;99.90;;;;;;5035905;28;20486;-80
2022/10/27 12:12:04;;;;;;;8.13;2.77;;;25.70;99.90;;;;;;5040073;28;21009;-81
2022/10/27 12:14:39;;;;;;;3.70;2.20;;;25.30;99.90;;;;;;5042692;28;20455;-81
2022/10/27 12:17:13;;;;;;;5.00;1.90;;;25.10;99.90;;;;;;5041230;28;20505;-81
2022/10/27 12:19:45;;;;;;;5.10;2.20;;;25.10;99.90;;;;;;5042551;28;20444;-80
2022/10/27 12:22:18;;;;;;;7.77;2.30;;;24.80;99.90;;;;;;5036554;28;20488;-81
2022/10/27 12:24:52;;;;;;;4.70;1.90;;;24.80;99.90;;;;;;5039207;28;20474;-81
2022/10/27 12:27:24;;;;;;;1.93;1.73;;;25.10;99.90;;;;;;5038365;28;20480;-80
2022/10/27 12:29:56;;;;;;;6.63;2.53;;;24.80;99.90;;;;;;5039429;28;20479;-80
2022/10/27 12:32:28;;;;;;;3.57;1.93;;;24.80;99.90;;;;;;5045591;28;20491;-81
2022/10/27 12:35:02;;;;;;;3.00;1.83;;;25.10;99.90;;;;;;5040894;28;20983;-80
2022/10/27 12:37:36;;;;;;;3.10;1.77;;;25.10;99.90;;;;;;5045167;28;20497;-80
2022/10/27 12:40:12;;;;;;;5.53;2.10;;;24.90;99.90;;;;;;5042109;28;20852;-80
2022/10/27 12:42:46;;;;;;;2.30;1.80;;;25.20;99.90;;;;;;5038834;28;20509;-81
2022/10/27 12:45:33;;;;;;;3.30;1.80;;;25.10;99.90;;;;;;5036266;28;20451;-81
2022/10/27 12:48:12;;;;;;;5.00;2.00;;;24.80;99.90;;;;;;5042216;28;20479;-79
2022/10/27 12:50:48;;;;;;;1.90;1.70;;;25.00;99.90;;;;;;5041826;28;20517;-80
2022/10/27 12:53:29;;;;;;;8.87;2.03;;;25.20;99.90;;;;;;5046041;28;20536;-80
2022/10/27 12:56:02;;;;;;;4.10;2.10;;;25.20;99.90;;;;;;5042713;28;20482;-80
2022/10/27 12:58:40;;;;;;;2.97;1.80;;;25.10;99.90;;;;;;5044817;28;20521;-80
2022/10/27 13:01:22;;;;;;;4.90;1.80;;;25.30;99.90;;;;;;5039482;28;20548;-80
2022/10/27 13:04:12;;;;;;;4.10;2.10;;;25.50;99.90;;;;;;5041144;28;20462;-80
2022/10/27 13:07:07;;;;;;;3.70;2.10;;;25.50;99.90;;;;;;5003971;28;20479;-81
2022/10/27 13:10:04;;;;;;;5.67;2.17;;;25.20;99.90;;;;;;5039053;28;20452;-80
2022/10/27 13:12:49;;;;;;;3.47;1.83;;;25.20;99.90;;;;;;5044069;28;20478;-80
2022/10/27 13:15:38;;;;;;;3.97;1.93;;;25.30;99.90;;;;;;5043530;28;21059;-81